Terminal Aerodrome Forecast
Issued by NWS Northern Indiana

Home | Current Version | Previous Version | Text Only | Print | Product List | Glossary On
Versions: 1 2 3 4 5 6 7 8 9 10 11 12 13 14 15 16 17 18
866
FTUS43 KIWX 041121
TAFFWA
TAF
KFWA 041121Z 0412/0512 23009KT 5SM SHRA BR OVC020
     FM041500 31015G22KT 6SM -SHRA BR OVC008
     FM041800 31018G25KT P6SM VCSH OVC012
     FM050200 33012KT P6SM OVC010=

USA.gov is the U.S. government's official web portal to all federal, state and local government web resources and services.